createdAt,value
2022-08-28T00:00:33.428Z,11.90
2022-08-28T00:01:33.428Z,12.20
2022-08-28T00:02:33.441Z,12.00
2022-08-28T00:03:33.425Z,12.20
2022-08-28T00:04:33.461Z,11.90
2022-08-28T00:05:33.418Z,11.80
2022-08-28T00:06:33.413Z,11.60
2022-08-28T00:07:33.411Z,11.40
2022-08-28T00:08:33.407Z,11.40
2022-08-28T00:09:33.403Z,12.00
2022-08-28T00:10:33.400Z,11.70
2022-08-28T00:11:33.401Z,12.00
2022-08-28T00:12:33.394Z,12.10
2022-08-28T00:13:33.393Z,12.10
2022-08-28T00:14:33.391Z,12.70
2022-08-28T00:15:33.387Z,12.40
2022-08-28T00:16:33.464Z,11.90
2022-08-28T00:17:33.381Z,12.40
2022-08-28T00:18:33.373Z,12.20
2022-08-28T00:19:36.695Z,12.20
2022-08-28T00:20:33.380Z,11.90
2022-08-28T00:21:33.370Z,11.70
2022-08-28T00:22:33.367Z,11.10
2022-08-28T00:23:42.704Z,11.10
2022-08-28T00:24:33.359Z,10.90
2022-08-28T00:25:33.360Z,11.00
2022-08-28T00:26:33.357Z,10.20
2022-08-28T00:27:33.352Z,10.30
2022-08-28T00:28:33.349Z,10.10
2022-08-28T00:29:33.347Z,9.30
2022-08-28T00:30:33.340Z,10.10
2022-08-28T00:31:33.431Z,9.50
2022-08-28T00:32:33.336Z,9.00
2022-08-28T00:33:33.336Z,9.70
2022-08-28T00:34:33.861Z,9.20
2022-08-28T00:35:33.329Z,8.40
2022-08-28T00:36:33.326Z,8.30
2022-08-28T00:37:33.322Z,8.70
2022-08-28T00:38:33.320Z,9.10
2022-08-28T00:39:33.319Z,9.60
2022-08-28T00:40:33.966Z,9.00
2022-08-28T00:41:33.312Z,9.00
2022-08-28T00:42:33.309Z,8.50
2022-08-28T00:43:33.305Z,8.70
2022-08-28T00:44:33.304Z,8.80
2022-08-28T00:45:38.753Z,8.90
2022-08-28T00:46:33.338Z,8.80
2022-08-28T00:47:33.293Z,9.10
2022-08-28T00:48:33.291Z,9.00
2022-08-28T00:49:33.288Z,9.40
2022-08-28T00:50:33.286Z,9.20
2022-08-28T00:51:33.281Z,8.80
2022-08-28T00:52:33.279Z,9.10
2022-08-28T00:53:33.333Z,8.50
2022-08-28T00:54:33.273Z,8.40
2022-08-28T00:55:33.268Z,8.50
2022-08-28T00:56:33.267Z,8.70
2022-08-28T00:57:33.263Z,8.10
2022-08-28T00:58:33.263Z,8.10
2022-08-28T00:59:33.257Z,8.10
2022-08-28T01:00:33.255Z,7.70
2022-08-28T01:01:33.303Z,7.60
2022-08-28T01:02:33.349Z,7.60
2022-08-28T01:03:33.245Z,7.80
2022-08-28T01:04:33.242Z,7.70
2022-08-28T01:05:33.240Z,7.90
2022-08-28T01:06:33.237Z,7.80
2022-08-28T01:07:33.236Z,7.70
2022-08-28T01:08:33.231Z,7.60
2022-08-28T01:09:33.228Z,7.80
2022-08-28T01:10:33.224Z,7.70
2022-08-28T01:11:33.223Z,7.60
2022-08-28T01:12:33.219Z,7.90
2022-08-28T01:13:33.214Z,7.50
2022-08-28T01:14:33.214Z,7.40
2022-08-28T01:15:33.269Z,7.50
2022-08-28T01:16:34.455Z,7.60
2022-08-28T01:17:33.204Z,7.50
2022-08-28T01:18:33.201Z,8.00
2022-08-28T01:19:33.199Z,8.20
2022-08-28T01:20:33.198Z,8.00
2022-08-28T01:21:33.195Z,8.50
2022-08-28T01:22:33.190Z,8.30
2022-08-28T01:23:33.186Z,8.60
2022-08-28T01:24:33.184Z,8.50
2022-08-28T01:25:33.180Z,8.60
2022-08-28T01:26:33.180Z,8.80
2022-08-28T01:27:33.174Z,8.80
2022-08-28T01:28:33.172Z,9.00
2022-08-28T01:29:33.168Z,9.70
2022-08-28T01:30:33.163Z,9.70
2022-08-28T01:31:33.225Z,10.00
2022-08-28T01:32:33.158Z,10.50
2022-08-28T01:33:33.156Z,9.90
2022-08-28T01:34:33.155Z,10.50
2022-08-28T01:35:33.161Z,10.60
2022-08-28T01:36:33.149Z,10.70
2022-08-28T01:37:33.144Z,10.50
2022-08-28T01:38:33.141Z,11.50
2022-08-28T01:39:33.138Z,11.30
2022-08-28T01:40:33.207Z,11.70
2022-08-28T01:41:33.131Z,11.80
2022-08-28T01:42:33.131Z,11.70
2022-08-28T01:43:33.126Z,11.10
2022-08-28T01:44:33.122Z,11.20
2022-08-28T01:45:33.120Z,11.70
2022-08-28T01:46:33.210Z,11.90
2022-08-28T01:47:33.114Z,11.90
2022-08-28T01:48:33.111Z,12.30
2022-08-28T01:49:33.107Z,11.70
2022-08-28T01:50:33.104Z,11.80
2022-08-28T01:51:34.978Z,12.20
2022-08-28T01:52:33.099Z,12.30
2022-08-28T01:53:33.518Z,12.40
2022-08-28T01:54:33.093Z,12.30
2022-08-28T01:55:33.090Z,13.00
2022-08-28T01:56:33.086Z,12.80
2022-08-28T01:57:33.083Z,12.90
2022-08-28T01:58:37.916Z,13.00
2022-08-28T01:59:33.077Z,12.90
2022-08-28T02:00:33.072Z,13.30
2022-08-28T02:01:33.091Z,13.50
2022-08-28T02:02:33.068Z,13.60
2022-08-28T02:03:33.062Z,13.40
2022-08-28T02:04:33.129Z,13.80
2022-08-28T02:05:33.058Z,13.80
2022-08-28T02:06:33.060Z,13.90
2022-08-28T02:07:33.052Z,14.00
2022-08-28T02:08:33.048Z,14.10
2022-08-28T02:09:33.047Z,13.90
2022-08-28T02:10:33.045Z,14.10
2022-08-28T02:11:33.041Z,14.30
2022-08-28T02:12:33.036Z,14.10
2022-08-28T02:13:33.034Z,14.30
2022-08-28T02:14:33.033Z,14.70
2022-08-28T02:15:33.074Z,14.70
2022-08-28T02:16:33.023Z,14.80
2022-08-28T02:17:33.025Z,14.80
2022-08-28T02:18:33.018Z,14.80
2022-08-28T02:19:33.014Z,14.70
2022-08-28T02:20:33.013Z,15.30
2022-08-28T02:21:33.008Z,14.60
2022-08-28T02:22:33.005Z,14.30
2022-08-28T02:23:33.001Z,14.50
2022-08-28T02:24:33.000Z,14.40
2022-08-28T02:25:32.997Z,14.60
2022-08-28T02:26:32.993Z,14.50
2022-08-28T02:27:32.992Z,14.80
2022-08-28T02:28:32.986Z,15.30
2022-08-28T02:29:32.977Z,14.70
2022-08-28T02:30:32.979Z,15.30
2022-08-28T02:31:32.976Z,15.60
2022-08-28T02:32:32.973Z,15.00
2022-08-28T02:33:32.967Z,15.30
2022-08-28T02:34:32.967Z,14.90
2022-08-28T02:35:32.966Z,14.80
2022-08-28T02:36:32.959Z,14.70
2022-08-28T02:37:32.974Z,14.90
2022-08-28T02:38:32.955Z,14.10
2022-08-28T02:39:32.951Z,13.40
2022-08-28T02:40:32.997Z,13.50
2022-08-28T02:41:32.944Z,13.50
2022-08-28T02:42:32.942Z,13.10
2022-08-28T02:43:40.101Z,13.40
2022-08-28T02:45:36.939Z,13.00
2022-08-28T02:46:36.999Z,13.00
2022-08-28T02:48:40.901Z,12.50
2022-08-28T02:49:40.893Z,12.30
2022-08-28T02:51:44.925Z,12.60
2022-08-28T02:52:44.903Z,12.10
2022-08-28T02:54:37.842Z,11.70
2022-08-28T02:55:37.833Z,11.80
2022-08-28T02:57:41.820Z,12.00
2022-08-28T02:58:41.812Z,11.80
2022-08-28T03:00:35.562Z,11.60
2022-08-28T03:01:35.203Z,11.50
2022-08-28T03:03:39.149Z,11.00
2022-08-28T03:04:39.136Z,11.20
2022-08-28T03:06:32.257Z,11.00
2022-08-28T03:07:32.239Z,10.50
2022-08-28T03:09:36.317Z,11.00
2022-08-28T03:10:36.298Z,10.10
2022-08-28T03:12:51.388Z,9.60
2022-08-28T03:13:51.380Z,9.50
2022-08-28T03:15:44.498Z,9.30
2022-08-28T03:16:44.498Z,9.90
2022-08-28T03:18:48.470Z,9.60
2022-08-28T03:19:48.459Z,8.90
2022-08-28T03:21:52.463Z,9.50
2022-08-28T03:22:52.476Z,8.90
2022-08-28T03:24:45.384Z,9.10
2022-08-28T03:25:45.367Z,8.90
2022-08-28T03:27:38.505Z,8.80
2022-08-28T03:28:38.489Z,8.90
2022-08-28T03:30:42.541Z,8.50
2022-08-28T03:31:42.472Z,8.70
2022-08-28T03:33:35.405Z,8.30
2022-08-28T03:34:35.393Z,8.60
2022-08-28T03:35:35.400Z,8.60
2022-08-28T03:36:35.389Z,8.20
2022-08-28T03:37:35.387Z,8.40
2022-08-28T03:38:35.379Z,8.20
2022-08-28T03:39:35.400Z,8.00
2022-08-28T03:40:35.407Z,7.80
2022-08-28T03:41:35.367Z,8.00
2022-08-28T03:42:35.375Z,8.30
2022-08-28T03:43:35.366Z,8.10
2022-08-28T03:44:35.359Z,8.10
2022-08-28T03:45:35.402Z,8.10
2022-08-28T03:46:35.353Z,7.60
2022-08-28T03:47:35.353Z,8.10
2022-08-28T03:48:35.346Z,7.70
2022-08-28T03:49:35.343Z,7.80
2022-08-28T03:50:35.342Z,7.70
2022-08-28T03:51:35.343Z,7.70
2022-08-28T03:52:35.334Z,8.10
2022-08-28T03:53:35.330Z,8.00
2022-08-28T03:54:35.325Z,7.60
2022-08-28T03:55:35.324Z,7.80
2022-08-28T03:56:35.328Z,7.60
2022-08-28T03:57:35.322Z,7.60
2022-08-28T03:58:35.318Z,7.60
2022-08-28T03:59:35.310Z,7.30
2022-08-28T04:00:35.302Z,7.50
2022-08-28T04:01:35.335Z,7.30
2022-08-28T04:02:35.320Z,7.00
2022-08-28T04:03:35.386Z,6.90
2022-08-28T04:04:35.293Z,6.70
2022-08-28T04:05:35.285Z,7.00
2022-08-28T04:06:36.062Z,7.00
2022-08-28T04:07:35.281Z,7.10
2022-08-28T04:08:35.276Z,6.80
2022-08-28T04:09:35.273Z,6.90
2022-08-28T04:10:35.268Z,7.00
2022-08-28T04:11:35.263Z,6.40
2022-08-28T04:12:35.536Z,6.60
2022-08-28T04:13:35.259Z,6.40
2022-08-28T04:14:35.263Z,6.80
2022-08-28T04:15:35.252Z,6.80
2022-08-28T04:16:35.293Z,6.40
2022-08-28T04:17:35.242Z,6.60
2022-08-28T04:18:35.241Z,6.10
2022-08-28T04:19:35.245Z,6.30
2022-08-28T04:20:35.229Z,5.90
2022-08-28T04:21:35.228Z,6.10
2022-08-28T04:22:35.225Z,6.00
2022-08-28T04:23:35.225Z,5.90
2022-08-28T04:24:35.219Z,6.40
2022-08-28T04:25:35.215Z,6.80
2022-08-28T04:26:35.218Z,6.20
2022-08-28T04:27:35.209Z,6.20
2022-08-28T04:28:35.202Z,5.90
2022-08-28T04:29:35.202Z,6.10
2022-08-28T04:30:35.194Z,5.90
2022-08-28T04:31:35.237Z,6.10
2022-08-28T04:32:35.194Z,5.90
2022-08-28T04:33:35.190Z,5.90
2022-08-28T04:34:35.181Z,6.00
2022-08-28T04:35:35.181Z,5.80
2022-08-28T04:36:35.188Z,5.40
2022-08-28T04:37:35.169Z,5.80
2022-08-28T04:38:35.170Z,5.50
2022-08-28T04:39:35.164Z,5.60
2022-08-28T04:40:35.215Z,5.70
2022-08-28T04:41:35.158Z,5.70
2022-08-28T04:42:35.152Z,5.70
2022-08-28T04:43:35.145Z,5.60
2022-08-28T04:44:35.146Z,5.80
2022-08-28T04:45:35.192Z,5.90
2022-08-28T04:46:35.140Z,5.50
2022-08-28T04:47:35.153Z,5.40
2022-08-28T04:48:35.151Z,5.70
2022-08-28T04:49:35.125Z,5.30
2022-08-28T04:50:35.190Z,5.90
2022-08-28T04:51:37.853Z,5.70
2022-08-28T04:52:35.120Z,5.40
2022-08-28T04:53:35.110Z,5.80
2022-08-28T04:54:35.133Z,5.20
2022-08-28T04:55:54.511Z,5.20
2022-08-28T04:56:35.107Z,5.20
2022-08-28T04:57:36.553Z,5.50
2022-08-28T04:58:35.097Z,5.00
2022-08-28T04:59:35.089Z,4.90
2022-08-28T05:00:35.107Z,5.00
2022-08-28T05:01:35.132Z,5.20
2022-08-28T05:02:35.117Z,5.00
2022-08-28T05:03:35.075Z,4.90
2022-08-28T05:04:35.073Z,5.40
2022-08-28T05:05:35.093Z,5.30
2022-08-28T05:06:35.080Z,5.20
2022-08-28T05:07:35.068Z,5.20
2022-08-28T05:08:35.057Z,5.10
2022-08-28T05:09:35.054Z,4.80
2022-08-28T05:10:35.051Z,5.40
2022-08-28T05:11:35.239Z,5.30
2022-08-28T05:12:35.045Z,5.20
2022-08-28T05:13:35.038Z,4.80
2022-08-28T05:14:35.043Z,4.80
2022-08-28T05:15:35.033Z,4.70
2022-08-28T05:16:35.096Z,4.70
2022-08-28T05:17:35.019Z,4.70
2022-08-28T05:18:35.022Z,4.60
2022-08-28T05:19:35.022Z,4.40
2022-08-28T05:20:35.013Z,4.40
2022-08-28T05:21:35.017Z,4.60
2022-08-28T05:22:35.009Z,4.60
2022-08-28T05:23:35.004Z,4.40
2022-08-28T05:24:35.001Z,4.60
2022-08-28T05:25:35.001Z,4.50
2022-08-28T05:26:34.993Z,4.60
2022-08-28T05:27:34.986Z,4.40
2022-08-28T05:28:34.985Z,4.40
2022-08-28T05:29:34.980Z,4.10
2022-08-28T05:30:34.986Z,4.50
2022-08-28T05:31:35.055Z,4.20
2022-08-28T05:32:34.976Z,4.20
2022-08-28T05:33:34.970Z,4.20
2022-08-28T05:34:34.966Z,4.20
2022-08-28T05:35:34.965Z,4.30
2022-08-28T05:36:34.958Z,4.40
2022-08-28T05:37:34.949Z,4.30
2022-08-28T05:38:34.952Z,4.40
2022-08-28T05:39:34.949Z,4.20
2022-08-28T05:40:34.986Z,4.30
2022-08-28T05:41:34.953Z,4.40
2022-08-28T05:42:38.900Z,4.10
2022-08-28T05:43:34.941Z,4.30
2022-08-28T05:44:34.928Z,4.10
2022-08-28T05:45:34.970Z,4.10
2022-08-28T05:46:34.929Z,4.30
2022-08-28T05:47:34.917Z,4.30
2022-08-28T05:48:37.064Z,4.30
2022-08-28T05:49:34.919Z,4.20
2022-08-28T05:50:34.905Z,4.60
2022-08-28T05:51:34.903Z,4.40
2022-08-28T05:52:34.900Z,4.60
2022-08-28T05:53:34.896Z,4.40
2022-08-28T05:54:34.892Z,4.50
2022-08-28T05:55:34.889Z,4.50
2022-08-28T05:56:34.883Z,4.40
2022-08-28T05:57:34.899Z,4.40
2022-08-28T05:58:34.878Z,4.50
2022-08-28T05:59:34.871Z,4.60
2022-08-28T06:00:34.864Z,4.60
2022-08-28T06:01:34.898Z,4.80
2022-08-28T06:02:34.870Z,4.20
2022-08-28T06:03:34.875Z,4.20
2022-08-28T06:04:34.940Z,4.30
2022-08-28T06:05:34.862Z,4.50
2022-08-28T06:06:34.851Z,4.30
2022-08-28T06:07:34.840Z,4.20
2022-08-28T06:08:34.842Z,4.50
2022-08-28T06:09:34.856Z,4.40
2022-08-28T06:10:34.833Z,4.50
2022-08-28T06:11:34.831Z,4.30
2022-08-28T06:12:34.823Z,4.30
2022-08-28T06:13:34.821Z,4.50
2022-08-28T06:14:34.820Z,4.60
2022-08-28T06:15:34.812Z,4.70
2022-08-28T06:16:34.859Z,4.60
2022-08-28T06:17:34.804Z,5.10
2022-08-28T06:18:34.805Z,4.90
2022-08-28T06:19:37.236Z,4.70
2022-08-28T06:20:34.800Z,4.90
2022-08-28T06:21:34.792Z,5.30
2022-08-28T06:22:34.795Z,5.30
2022-08-28T06:23:34.805Z,5.00
2022-08-28T06:24:34.814Z,5.40
2022-08-28T06:25:34.778Z,5.50
2022-08-28T06:26:34.771Z,5.10
2022-08-28T06:27:34.771Z,5.30
2022-08-28T06:28:34.771Z,4.80
2022-08-28T06:29:34.764Z,5.00
2022-08-28T06:30:34.755Z,5.00
2022-08-28T06:31:34.819Z,4.90
2022-08-28T06:32:34.751Z,5.00
2022-08-28T06:33:34.746Z,4.90
2022-08-28T06:34:34.755Z,5.00
2022-08-28T06:35:34.742Z,5.10
2022-08-28T06:36:34.738Z,5.30
2022-08-28T06:37:34.733Z,5.00
2022-08-28T06:38:34.735Z,5.30
2022-08-28T06:39:34.727Z,5.00
2022-08-28T06:40:34.835Z,5.40
2022-08-28T06:41:34.719Z,5.30
2022-08-28T06:42:34.715Z,5.30
2022-08-28T06:43:34.715Z,5.30
2022-08-28T06:44:34.710Z,5.10
2022-08-28T06:45:34.726Z,5.00
2022-08-28T06:46:34.708Z,5.10
2022-08-28T06:47:34.702Z,5.30
2022-08-28T06:48:34.695Z,4.80
2022-08-28T06:49:34.688Z,5.00
2022-08-28T06:50:34.710Z,5.10
2022-08-28T06:51:34.681Z,5.10
2022-08-28T06:52:34.679Z,6.10
2022-08-28T06:53:34.697Z,5.20
2022-08-28T06:54:34.672Z,5.20
2022-08-28T06:55:34.670Z,8.60
2022-08-28T06:56:34.663Z,4.90
2022-08-28T06:57:34.667Z,4.80
2022-08-28T06:58:34.662Z,4.80
2022-08-28T06:59:34.658Z,4.80
2022-08-28T07:00:34.658Z,4.90
2022-08-28T07:01:34.763Z,5.00
2022-08-28T07:02:34.691Z,4.90
2022-08-28T07:03:34.650Z,4.90
2022-08-28T07:04:34.637Z,4.80
2022-08-28T07:05:34.662Z,4.70
2022-08-28T07:06:34.630Z,4.60
2022-08-28T07:07:34.630Z,4.70
2022-08-28T07:08:34.678Z,5.10
2022-08-28T07:09:34.621Z,4.50
2022-08-28T07:10:34.622Z,4.60
2022-08-28T07:11:34.626Z,4.80
2022-08-28T07:12:34.610Z,4.80
2022-08-28T07:13:34.612Z,4.70
2022-08-28T07:14:34.604Z,4.50
2022-08-28T07:15:34.658Z,4.60
2022-08-28T07:16:34.598Z,4.70
2022-08-28T07:17:34.599Z,5.00
2022-08-28T07:18:34.594Z,4.60
2022-08-28T07:19:34.593Z,4.80
2022-08-28T07:20:34.594Z,4.40
2022-08-28T07:21:38.326Z,4.60
2022-08-28T07:22:34.584Z,4.50
2022-08-28T07:23:34.584Z,4.50
2022-08-28T07:24:34.631Z,4.50
2022-08-28T07:25:34.606Z,4.50
2022-08-28T07:26:35.730Z,4.40
2022-08-28T07:27:34.567Z,4.40
2022-08-28T07:28:34.572Z,4.50
2022-08-28T07:29:34.556Z,4.20
2022-08-28T07:30:34.559Z,4.20
2022-08-28T07:31:34.588Z,4.30
2022-08-28T07:32:34.551Z,4.60
2022-08-28T07:33:34.558Z,4.60
2022-08-28T07:34:34.547Z,4.60
2022-08-28T07:35:34.542Z,5.00
2022-08-28T07:36:34.544Z,4.70
2022-08-28T07:37:34.535Z,4.70
2022-08-28T07:38:34.535Z,4.50
2022-08-28T07:39:34.531Z,4.60
2022-08-28T07:40:34.588Z,4.50
2022-08-28T07:41:34.523Z,4.50
2022-08-28T07:42:35.730Z,4.50
2022-08-28T07:43:34.526Z,4.90
2022-08-28T07:44:34.513Z,4.80
2022-08-28T07:45:34.540Z,4.80
2022-08-28T07:46:34.510Z,5.10
2022-08-28T07:47:34.507Z,4.70
2022-08-28T07:48:34.504Z,4.60
2022-08-28T07:49:34.504Z,4.90
2022-08-28T07:50:34.497Z,4.80
2022-08-28T07:51:34.500Z,4.60
2022-08-28T07:52:34.491Z,4.70
2022-08-28T07:53:36.530Z,4.70
2022-08-28T07:54:34.513Z,4.80
2022-08-28T07:55:34.481Z,4.50
2022-08-28T07:56:34.482Z,4.80
2022-08-28T07:57:34.474Z,4.70
2022-08-28T07:58:34.478Z,4.80
2022-08-28T07:59:36.899Z,4.90
2022-08-28T08:00:34.468Z,5.00
2022-08-28T08:01:34.492Z,4.70
2022-08-28T08:02:34.466Z,4.80
2022-08-28T08:03:34.486Z,4.90
2022-08-28T08:04:34.464Z,4.60
2022-08-28T08:05:34.454Z,4.40
2022-08-28T08:06:34.605Z,4.30
2022-08-28T08:07:34.452Z,4.50
2022-08-28T08:08:34.450Z,4.60
2022-08-28T08:09:34.446Z,4.80
2022-08-28T08:10:34.774Z,4.60
2022-08-28T08:11:34.442Z,4.80
2022-08-28T08:12:34.445Z,4.70
2022-08-28T08:13:34.439Z,4.80
2022-08-28T08:14:34.434Z,5.00
2022-08-28T08:15:34.470Z,4.80
2022-08-28T08:16:34.442Z,4.70
2022-08-28T08:17:34.424Z,5.10
2022-08-28T08:18:34.425Z,5.20
2022-08-28T08:19:34.418Z,5.40
2022-08-28T08:20:34.422Z,5.00
2022-08-28T08:21:34.416Z,5.20
2022-08-28T08:22:34.415Z,5.10
2022-08-28T08:23:34.420Z,5.20
2022-08-28T08:24:34.410Z,5.10
2022-08-28T08:25:34.430Z,5.00
2022-08-28T08:26:34.411Z,5.20
2022-08-28T08:27:34.400Z,5.20
2022-08-28T08:28:34.395Z,5.40
2022-08-28T08:29:34.395Z,5.20
2022-08-28T08:30:34.402Z,5.10
2022-08-28T08:31:35.210Z,5.20
2022-08-28T08:32:34.397Z,5.40
2022-08-28T08:33:34.384Z,5.30
2022-08-28T08:34:34.383Z,5.30
2022-08-28T08:35:34.382Z,5.30
2022-08-28T08:36:34.384Z,5.70
2022-08-28T08:37:34.374Z,5.20
2022-08-28T08:38:34.372Z,5.50
2022-08-28T08:39:34.371Z,5.50
2022-08-28T08:40:34.402Z,5.40
2022-08-28T08:41:34.365Z,5.30
2022-08-28T08:42:34.360Z,5.30
2022-08-28T08:43:41.528Z,5.60
2022-08-28T08:45:38.350Z,5.70
2022-08-28T08:46:38.368Z,6.00
2022-08-28T08:48:31.453Z,5.40
2022-08-28T08:49:31.436Z,5.80
2022-08-28T08:51:24.547Z,5.70
2022-08-28T08:52:24.541Z,5.70
2022-08-28T08:54:28.532Z,5.60
2022-08-28T08:55:28.517Z,5.70
2022-08-28T08:57:21.632Z,5.90
2022-08-28T08:58:21.620Z,5.90
2022-08-28T08:59:21.611Z,6.00
2022-08-28T09:00:21.612Z,5.90
2022-08-28T09:01:21.669Z,5.70
2022-08-28T09:02:21.609Z,5.90
2022-08-28T09:03:21.666Z,5.90
2022-08-28T09:04:21.805Z,5.90
2022-08-28T09:05:21.636Z,6.00
2022-08-28T09:06:21.596Z,6.20
2022-08-28T09:07:21.593Z,6.20
2022-08-28T09:08:21.586Z,6.10
2022-08-28T09:09:21.586Z,6.00
2022-08-28T09:10:21.584Z,6.10
2022-08-28T09:11:21.574Z,5.90
2022-08-28T09:12:21.578Z,6.10
2022-08-28T09:13:21.571Z,5.90
2022-08-28T09:14:21.571Z,6.90
2022-08-28T09:15:21.568Z,6.30
2022-08-28T09:16:21.619Z,6.50
2022-08-28T09:17:21.561Z,5.90
2022-08-28T09:18:21.560Z,6.40
2022-08-28T09:19:21.553Z,6.30
2022-08-28T09:20:21.554Z,6.40
2022-08-28T09:21:23.285Z,7.00
2022-08-28T09:22:21.545Z,6.70
2022-08-28T09:23:21.545Z,6.60
2022-08-28T09:24:21.536Z,6.50
2022-08-28T09:25:21.533Z,6.50
2022-08-28T09:26:21.532Z,6.40
2022-08-28T09:27:21.538Z,6.20
2022-08-28T09:28:21.526Z,6.00
2022-08-28T09:29:21.525Z,6.50
2022-08-28T09:30:21.522Z,6.90
2022-08-28T09:31:21.549Z,6.60
2022-08-28T09:32:21.512Z,6.40
2022-08-28T09:33:21.508Z,6.20
2022-08-28T09:34:21.507Z,6.10
2022-08-28T09:35:21.503Z,6.20
2022-08-28T09:36:21.500Z,6.20
2022-08-28T09:37:21.501Z,6.30
2022-08-28T09:38:21.496Z,6.30
2022-08-28T09:39:21.491Z,6.40
2022-08-28T09:40:21.520Z,7.10
2022-08-28T09:41:21.486Z,6.70
2022-08-28T09:42:21.481Z,6.80
2022-08-28T09:43:21.476Z,6.40
2022-08-28T09:44:21.474Z,6.40
2022-08-28T09:45:21.484Z,6.40
2022-08-28T09:46:21.558Z,6.60
2022-08-28T09:47:21.470Z,6.70
2022-08-28T09:48:21.481Z,6.80
2022-08-28T09:49:21.459Z,6.80
2022-08-28T09:50:21.465Z,6.50
2022-08-28T09:51:21.453Z,6.90
2022-08-28T09:52:25.128Z,6.70
2022-08-28T09:53:21.446Z,6.70
2022-08-28T09:54:21.445Z,6.70
2022-08-28T09:55:21.438Z,6.60
2022-08-28T09:56:21.439Z,6.50
2022-08-28T09:57:21.436Z,6.40
2022-08-28T09:58:21.431Z,6.80
2022-08-28T09:59:21.432Z,6.70
2022-08-28T10:00:21.426Z,6.80
2022-08-28T10:01:21.479Z,7.80
2022-08-28T10:02:21.423Z,7.90
2022-08-28T10:03:21.428Z,7.00
2022-08-28T10:04:21.443Z,6.90
2022-08-28T10:05:25.788Z,6.80
2022-08-28T10:06:21.410Z,6.70
2022-08-28T10:07:21.407Z,6.30
2022-08-28T10:08:21.402Z,6.60
2022-08-28T10:09:21.398Z,6.80
2022-08-28T10:10:21.407Z,7.80
2022-08-28T10:11:21.395Z,7.30
2022-08-28T10:12:21.392Z,7.30
2022-08-28T10:13:21.387Z,7.30
2022-08-28T10:14:21.383Z,6.90
2022-08-28T10:15:21.388Z,7.00
2022-08-28T10:16:21.428Z,7.00
2022-08-28T10:17:21.713Z,6.80
2022-08-28T10:18:21.373Z,7.40
2022-08-28T10:19:21.365Z,7.30
2022-08-28T10:20:21.365Z,7.20
2022-08-28T10:21:21.366Z,7.70
2022-08-28T10:22:21.364Z,8.60
2022-08-28T10:23:21.357Z,7.70
2022-08-28T10:24:27.410Z,7.70
2022-08-28T10:25:21.363Z,7.90
2022-08-28T10:26:21.344Z,7.30
2022-08-28T10:27:21.350Z,7.50
2022-08-28T10:28:21.357Z,7.70
2022-08-28T10:29:21.339Z,7.60
2022-08-28T10:30:21.334Z,7.70
2022-08-28T10:31:21.406Z,7.60
2022-08-28T10:32:21.328Z,7.50
2022-08-28T10:33:21.320Z,7.70
2022-08-28T10:34:21.322Z,7.30
2022-08-28T10:35:21.315Z,7.30
2022-08-28T10:36:33.864Z,7.50
2022-08-28T10:37:21.310Z,7.00
2022-08-28T10:38:21.307Z,7.00
2022-08-28T10:39:21.303Z,7.80
2022-08-28T10:40:21.365Z,7.20
2022-08-28T10:41:21.300Z,7.90
2022-08-28T10:42:21.294Z,7.40
2022-08-28T10:43:21.289Z,7.60
2022-08-28T10:44:21.285Z,7.20
2022-08-28T10:45:21.285Z,7.60
2022-08-28T10:46:25.270Z,7.40
2022-08-28T10:47:21.282Z,7.00
2022-08-28T10:48:21.295Z,7.20
2022-08-28T10:49:21.272Z,7.10
2022-08-28T10:50:21.270Z,7.70
2022-08-28T10:51:30.166Z,7.90
2022-08-28T10:52:21.259Z,8.10
2022-08-28T10:53:21.261Z,8.10
2022-08-28T10:54:21.255Z,8.10
2022-08-28T10:55:21.253Z,7.80
2022-08-28T10:56:21.249Z,8.10
2022-08-28T10:57:21.247Z,7.70
2022-08-28T10:58:25.126Z,8.20
2022-08-28T10:59:21.239Z,8.50
2022-08-28T11:00:21.233Z,8.40
2022-08-28T11:01:21.254Z,8.80
2022-08-28T11:02:21.273Z,8.10
2022-08-28T11:03:33.942Z,8.10
2022-08-28T11:04:25.427Z,8.00
2022-08-28T11:05:21.217Z,7.60
2022-08-28T11:06:21.212Z,7.60
2022-08-28T11:07:21.210Z,7.50
2022-08-28T11:08:21.206Z,6.90
2022-08-28T11:09:21.200Z,6.90
2022-08-28T11:10:21.201Z,7.00
2022-08-28T11:11:21.198Z,7.40
2022-08-28T11:12:21.194Z,6.70
2022-08-28T11:13:21.191Z,7.70
2022-08-28T11:14:21.191Z,7.80
2022-08-28T11:15:21.185Z,8.10
2022-08-28T11:16:21.236Z,8.20
2022-08-28T11:17:21.177Z,7.70
2022-08-28T11:18:21.173Z,7.40
2022-08-28T11:19:21.168Z,7.30
2022-08-28T11:20:21.171Z,7.80
2022-08-28T11:21:21.166Z,7.90
2022-08-28T11:22:21.156Z,7.90
2022-08-28T11:23:21.155Z,7.60
2022-08-28T11:24:21.154Z,8.40
2022-08-28T11:25:26.452Z,7.70
2022-08-28T11:26:21.146Z,7.80
2022-08-28T11:27:21.146Z,7.50
2022-08-28T11:28:21.144Z,7.50
2022-08-28T11:29:21.145Z,7.50
2022-08-28T11:30:21.133Z,7.80
2022-08-28T11:31:29.032Z,7.60
2022-08-28T11:32:21.128Z,7.70
2022-08-28T11:33:21.123Z,8.10
2022-08-28T11:34:21.118Z,8.60
2022-08-28T11:35:21.129Z,8.90
2022-08-28T11:36:21.118Z,8.60
2022-08-28T11:37:21.110Z,8.40
2022-08-28T11:38:21.108Z,8.80
2022-08-28T11:39:21.101Z,8.80
2022-08-28T11:40:21.158Z,8.50
2022-08-28T11:41:21.098Z,8.80
2022-08-28T11:42:21.095Z,8.90
2022-08-28T11:43:21.092Z,8.80
2022-08-28T11:44:21.088Z,8.90
2022-08-28T11:45:21.086Z,8.50
2022-08-28T11:46:24.025Z,8.50
2022-08-28T11:47:21.081Z,8.90
2022-08-28T11:48:21.076Z,8.20
2022-08-28T11:49:21.073Z,8.30
2022-08-28T11:50:21.072Z,8.10
2022-08-28T11:51:21.069Z,7.90
2022-08-28T11:52:21.061Z,7.90
2022-08-28T11:53:21.055Z,7.80
2022-08-28T11:54:21.059Z,7.90
2022-08-28T11:55:21.052Z,8.30
2022-08-28T11:56:30.502Z,8.20
2022-08-28T11:57:21.046Z,7.60
2022-08-28T11:58:21.047Z,8.00
2022-08-28T11:59:21.038Z,7.90
2022-08-28T12:00:21.036Z,8.40
2022-08-28T12:01:21.098Z,8.30
2022-08-28T12:02:21.119Z,8.20
2022-08-28T12:03:21.028Z,8.10
2022-08-28T12:04:21.064Z,7.80
2022-08-28T12:05:21.020Z,8.00
2022-08-28T12:06:21.021Z,7.80
2022-08-28T12:07:21.016Z,7.00
2022-08-28T12:08:21.011Z,7.50
2022-08-28T12:09:21.008Z,7.60
2022-08-28T12:10:21.011Z,7.60
2022-08-28T12:11:21.027Z,7.40
2022-08-28T12:12:20.999Z,7.70
2022-08-28T12:13:20.995Z,7.90
2022-08-28T12:14:20.995Z,7.80
2022-08-28T12:15:20.991Z,7.80
2022-08-28T12:16:21.035Z,7.80
2022-08-28T12:17:20.985Z,7.40
2022-08-28T12:18:20.982Z,7.70
2022-08-28T12:19:20.980Z,7.30
2022-08-28T12:20:20.975Z,7.60
2022-08-28T12:21:20.973Z,7.90
2022-08-28T12:22:20.969Z,7.10
2022-08-28T12:23:20.966Z,7.20
2022-08-28T12:24:20.969Z,7.60
2022-08-28T12:25:20.960Z,7.80
2022-08-28T12:26:20.959Z,8.10
2022-08-28T12:27:20.955Z,7.90
2022-08-28T12:28:20.955Z,7.20
2022-08-28T12:29:20.948Z,7.30
2022-08-28T12:30:20.947Z,7.00
2022-08-28T12:31:21.030Z,7.20
2022-08-28T12:32:20.941Z,6.80
2022-08-28T12:33:20.933Z,6.90
2022-08-28T12:34:20.933Z,6.90
2022-08-28T12:35:20.935Z,6.80
2022-08-28T12:36:20.929Z,6.40
2022-08-28T12:37:20.926Z,6.40
2022-08-28T12:38:20.929Z,7.20
2022-08-28T12:39:20.917Z,6.60
2022-08-28T12:40:20.970Z,6.70
2022-08-28T12:41:21.038Z,7.20
2022-08-28T12:42:20.909Z,7.10
2022-08-28T12:43:20.904Z,7.60
2022-08-28T12:44:20.903Z,7.20
2022-08-28T12:45:20.900Z,6.80
2022-08-28T12:46:20.926Z,6.50
2022-08-28T12:47:20.894Z,7.20
2022-08-28T12:48:20.892Z,7.20
2022-08-28T12:49:20.887Z,7.40
2022-08-28T12:50:20.885Z,7.00
2022-08-28T12:51:20.883Z,6.70
2022-08-28T12:52:20.879Z,7.00
2022-08-28T12:53:20.876Z,6.20
2022-08-28T12:54:20.876Z,6.50
2022-08-28T12:55:24.320Z,6.20
2022-08-28T12:56:20.867Z,6.50
2022-08-28T12:57:20.864Z,6.40
2022-08-28T12:58:20.861Z,7.10
2022-08-28T12:59:20.857Z,7.40
2022-08-28T13:00:20.854Z,7.10
2022-08-28T13:01:20.981Z,6.50
2022-08-28T13:02:21.107Z,6.80
2022-08-28T13:03:20.846Z,6.80
2022-08-28T13:04:20.844Z,6.70
2022-08-28T13:05:20.843Z,6.40
2022-08-28T13:06:20.839Z,6.20
2022-08-28T13:07:20.841Z,5.80
2022-08-28T13:08:20.835Z,6.40
2022-08-28T13:09:20.827Z,6.40
2022-08-28T13:10:20.824Z,6.50
2022-08-28T13:11:20.823Z,6.60
2022-08-28T13:12:20.819Z,6.30
2022-08-28T13:13:20.821Z,6.10
2022-08-28T13:14:20.816Z,5.90
2022-08-28T13:15:24.354Z,5.70
2022-08-28T13:16:20.857Z,6.20
2022-08-28T13:17:20.803Z,6.10
2022-08-28T13:18:20.828Z,6.00
2022-08-28T13:19:20.798Z,6.30
2022-08-28T13:20:20.796Z,5.90
2022-08-28T13:21:32.704Z,5.90
2022-08-28T13:22:20.789Z,5.70
2022-08-28T13:23:20.788Z,5.50
2022-08-28T13:24:20.786Z,5.60
2022-08-28T13:25:20.782Z,5.60
2022-08-28T13:26:20.782Z,5.60
2022-08-28T13:27:20.777Z,5.20
2022-08-28T13:28:20.776Z,5.30
2022-08-28T13:29:20.775Z,5.20
2022-08-28T13:30:20.840Z,5.00
2022-08-28T13:31:20.774Z,4.80
2022-08-28T13:32:20.764Z,4.90
2022-08-28T13:33:20.760Z,4.80
2022-08-28T13:34:20.758Z,4.30
2022-08-28T13:35:20.758Z,4.80
2022-08-28T13:36:20.754Z,4.70